createdAt,value
2023-02-05T00:03:26.227Z,3.29
2023-02-05T00:08:30.420Z,2.57
2023-02-05T00:13:32.701Z,2.47
2023-02-05T00:18:34.948Z,3.62
2023-02-05T00:23:37.848Z,2.09
2023-02-05T00:28:41.051Z,2.19
2023-02-05T00:33:44.356Z,1.91
2023-02-05T00:38:47.493Z,2.22
2023-02-05T00:43:49.601Z,2.10
2023-02-05T00:48:51.705Z,2.09
2023-02-05T00:53:53.964Z,2.68
2023-02-05T00:58:57.764Z,2.00
2023-02-05T01:04:00.031Z,1.89
2023-02-05T01:09:02.438Z,2.15
2023-02-05T01:14:04.772Z,2.59
2023-02-05T01:19:07.750Z,2.93
2023-02-05T01:24:10.052Z,2.14
2023-02-05T01:29:12.170Z,2.00
2023-02-05T01:34:14.440Z,1.73
2023-02-05T01:39:16.898Z,2.23
2023-02-05T01:44:24.762Z,1.47
2023-02-05T01:49:34.123Z,1.29
2023-02-05T01:54:40.240Z,1.76
2023-02-05T01:59:44.148Z,1.43
2023-02-05T02:04:52.649Z,1.81
2023-02-05T02:09:55.783Z,2.29
2023-02-05T02:15:04.292Z,1.84
2023-02-05T02:20:08.700Z,1.66
2023-02-05T02:25:33.299Z,1.76
2023-02-05T02:30:46.854Z,2.27
2023-02-05T02:35:59.006Z,1.81
2023-02-05T02:46:48.596Z,1.35
2023-02-05T02:51:52.694Z,2.64
2023-02-05T02:56:58.209Z,2.44
2023-02-05T03:02:04.900Z,2.10
2023-02-05T03:07:26.093Z,1.21
2023-02-05T03:12:29.418Z,1.36
2023-02-05T03:17:31.866Z,2.12
2023-02-05T03:22:34.318Z,1.65
2023-02-05T03:27:37.297Z,1.46
2023-02-05T03:32:55.850Z,1.46
2023-02-05T03:38:17.372Z,1.74
2023-02-05T03:43:34.675Z,1.74
2023-02-05T03:49:25.849Z,1.67
2023-02-05T03:55:04.340Z,1.64
2023-02-05T04:00:08.719Z,2.31
2023-02-05T04:05:16.135Z,1.13
2023-02-05T04:10:20.263Z,1.87
2023-02-05T04:15:24.434Z,0.93
2023-02-05T04:20:29.983Z,1.43
2023-02-05T04:25:33.888Z,1.61
2023-02-05T04:30:36.860Z,1.66
2023-02-05T04:35:39.952Z,1.91
2023-02-05T04:40:42.324Z,1.66
2023-02-05T04:45:44.573Z,1.00
2023-02-05T04:50:47.089Z,0.76
2023-02-05T04:55:49.345Z,1.03
2023-02-05T05:00:51.536Z,1.06
2023-02-05T05:05:54.031Z,0.11
2023-02-05T05:10:56.277Z,0.30
2023-02-05T05:15:58.540Z,0.67
2023-02-05T05:21:01.537Z,0.62
2023-02-05T05:26:09.350Z,1.41
2023-02-05T05:31:20.080Z,1.21
2023-02-05T05:36:22.363Z,1.92
2023-02-05T05:41:44.082Z,1.48
2023-02-05T05:46:46.185Z,1.96
2023-02-05T05:51:48.382Z,1.82
2023-02-05T05:56:50.689Z,1.48
2023-02-05T06:01:53.360Z,1.63
2023-02-05T06:06:55.678Z,1.67
2023-02-05T06:11:57.793Z,1.92
2023-02-05T06:17:00.053Z,2.07
2023-02-05T06:22:02.366Z,1.75
2023-02-05T06:27:04.565Z,2.12
2023-02-05T06:32:06.803Z,2.50
2023-02-05T06:37:10.026Z,2.54
2023-02-05T06:42:12.239Z,2.59
2023-02-05T06:47:14.591Z,2.38
2023-02-05T06:52:16.780Z,2.70
2023-02-05T06:57:18.967Z,2.39
2023-02-05T07:02:21.431Z,3.09
2023-02-05T07:07:23.816Z,3.27
2023-02-05T07:12:26.124Z,3.38
2023-02-05T07:17:28.653Z,3.24
2023-02-05T07:22:30.883Z,3.66
2023-02-05T07:27:33.111Z,2.80
2023-02-05T07:32:35.346Z,2.72
2023-02-05T07:37:39.568Z,3.46
2023-02-05T07:42:41.808Z,3.83
2023-02-05T07:47:44.386Z,3.85
2023-02-05T07:52:46.806Z,3.90
2023-02-05T07:57:49.090Z,3.83
2023-02-05T08:02:51.292Z,4.02
2023-02-05T08:07:53.597Z,3.62
2023-02-05T08:12:56.033Z,3.57
2023-02-05T08:17:58.247Z,3.32
2023-02-05T08:23:04.956Z,3.22
2023-02-05T08:28:07.428Z,3.59
2023-02-05T08:33:09.555Z,3.69
2023-02-05T08:38:11.764Z,4.26
2023-02-05T08:43:14.042Z,4.41
2023-02-05T08:48:16.330Z,4.52
2023-02-05T08:53:18.551Z,4.30
2023-02-05T08:58:20.799Z,4.03
2023-02-05T09:03:23.016Z,3.83
2023-02-05T09:08:27.314Z,4.16
2023-02-05T09:13:29.673Z,4.29
2023-02-05T09:18:32.881Z,4.99
2023-02-05T09:23:35.177Z,5.07
2023-02-05T09:28:37.575Z,4.71
2023-02-05T09:33:40.285Z,4.78
2023-02-05T09:38:42.914Z,4.99
2023-02-05T09:50:03.052Z,5.31
2023-02-05T09:55:22.903Z,5.22
2023-02-05T10:00:34.699Z,5.40
2023-02-05T10:06:08.268Z,5.63
2023-02-05T10:11:37.564Z,5.48
2023-02-05T10:17:12.446Z,5.65
2023-02-05T10:22:38.477Z,5.78
2023-02-05T10:28:20.635Z,5.86
2023-02-05T10:33:53.634Z,5.82
2023-02-05T10:38:57.923Z,5.84
2023-02-05T10:44:18.435Z,5.91
2023-02-05T10:49:50.290Z,5.93
2023-02-05T10:54:52.695Z,5.89
2023-02-05T10:59:59.372Z,5.78
2023-02-05T11:10:43.359Z,5.59
2023-02-05T11:16:06.495Z,5.41
2023-02-05T11:21:10.116Z,5.74
2023-02-05T11:26:22.637Z,5.79
2023-02-05T11:31:28.372Z,5.90
2023-02-05T11:36:31.369Z,6.01
2023-02-05T11:41:56.339Z,6.24
2023-02-05T11:47:01.307Z,5.89
2023-02-05T11:52:11.352Z,6.14
2023-02-05T11:57:22.594Z,6.61
2023-02-05T12:02:30.811Z,6.59
2023-02-05T12:07:47.210Z,6.54
2023-02-05T12:13:38.789Z,6.56
2023-02-05T12:19:23.574Z,6.55
2023-02-05T12:24:48.347Z,6.64
2023-02-05T12:30:21.084Z,6.55
2023-02-05T12:35:46.052Z,6.51
2023-02-05T12:41:30.986Z,6.68
2023-02-05T12:46:49.627Z,6.69
2023-02-05T12:52:27.005Z,6.86
2023-02-05T12:57:44.753Z,6.93
2023-02-05T13:03:17.278Z,6.76
2023-02-05T13:09:01.968Z,6.61
2023-02-05T13:14:17.742Z,6.56
2023-02-05T13:19:34.140Z,6.64
2023-02-05T13:25:07.814Z,6.61
2023-02-05T13:30:20.994Z,6.55
2023-02-05T13:35:24.052Z,6.60
2023-02-05T13:40:57.076Z,6.88
2023-02-05T13:46:55.781Z,6.57
2023-02-05T13:52:27.263Z,6.59
2023-02-05T13:57:51.341Z,6.84
2023-02-05T14:02:57.160Z,6.65
2023-02-05T14:08:03.206Z,6.90
2023-02-05T14:13:28.642Z,6.50
2023-02-05T14:18:45.822Z,6.90
2023-02-05T14:23:48.247Z,6.88
2023-02-05T14:28:52.788Z,7.34
2023-02-05T14:34:43.730Z,7.23
2023-02-05T14:39:46.076Z,7.05
2023-02-05T14:44:57.441Z,7.11
2023-02-05T14:50:07.156Z,7.31
2023-02-05T14:55:22.183Z,7.33
2023-02-05T15:00:35.548Z,7.28
2023-02-05T15:05:50.162Z,6.89
2023-02-05T15:11:20.336Z,7.56
2023-02-05T15:16:24.410Z,6.44
2023-02-05T15:21:46.729Z,6.78
2023-02-05T15:27:16.487Z,7.73
2023-02-05T15:32:27.500Z,6.85
2023-02-05T15:37:46.980Z,7.26
2023-02-05T15:43:19.362Z,7.19
2023-02-05T15:48:27.348Z,6.30
2023-02-05T15:53:46.123Z,6.80
2023-02-05T15:58:56.068Z,6.69
2023-02-05T16:03:59.572Z,7.02
2023-02-05T16:09:01.730Z,6.25
2023-02-05T16:14:15.504Z,6.47
2023-02-05T16:19:25.165Z,6.87
2023-02-05T16:24:39.162Z,6.83
2023-02-05T16:29:52.938Z,6.33
2023-02-05T16:34:55.600Z,6.58
2023-02-05T16:40:02.291Z,6.43
2023-02-05T16:45:21.297Z,6.73
2023-02-05T16:50:43.457Z,6.99
2023-02-05T16:55:45.951Z,5.80
2023-02-05T17:01:02.055Z,6.57
2023-02-05T17:06:14.880Z,6.88
2023-02-05T17:11:39.061Z,7.13
2023-02-05T17:16:43.039Z,6.78
2023-02-05T17:21:45.421Z,7.06
2023-02-05T17:26:48.437Z,6.59
2023-02-05T17:31:50.676Z,6.68
2023-02-05T17:36:52.839Z,6.97
2023-02-05T17:42:04.064Z,6.30
2023-02-05T17:47:06.700Z,6.41
2023-02-05T17:52:09.988Z,6.91
2023-02-05T17:57:21.400Z,6.63
2023-02-05T18:02:23.676Z,6.59
2023-02-05T18:07:44.143Z,6.65
2023-02-05T18:12:46.306Z,6.42
2023-02-05T18:17:48.672Z,6.47
2023-02-05T18:22:50.859Z,6.54
2023-02-05T18:27:53.496Z,7.19
2023-02-05T18:32:55.683Z,7.01
2023-02-05T18:37:57.768Z,6.98
2023-02-05T18:43:00.525Z,7.12
2023-02-05T18:48:03.784Z,7.05
2023-02-05T18:53:06.607Z,6.90
2023-02-05T18:58:08.706Z,6.71
2023-02-05T19:03:11.380Z,7.21
2023-02-05T19:08:13.575Z,6.65
2023-02-05T19:13:15.940Z,6.64
2023-02-05T19:18:18.623Z,7.27
2023-02-05T19:23:21.138Z,6.79
2023-02-05T19:28:23.249Z,6.86
2023-02-05T19:33:25.330Z,6.26
2023-02-05T19:38:27.890Z,6.42
2023-02-05T19:43:30.150Z,6.28
2023-02-05T19:48:33.360Z,6.14
2023-02-05T19:53:38.924Z,5.99
2023-02-05T19:58:44.140Z,6.18
2023-02-05T20:03:46.856Z,5.47
2023-02-05T20:08:49.535Z,5.90
2023-02-05T20:13:53.662Z,6.09
2023-02-05T20:18:58.738Z,6.25
2023-02-05T20:24:01.033Z,5.88
2023-02-05T20:29:22.687Z,6.00
2023-02-05T20:34:30.472Z,5.59
2023-02-05T20:39:35.332Z,5.81
2023-02-05T20:44:37.736Z,5.79
2023-02-05T20:49:42.522Z,5.86
2023-02-05T20:54:44.855Z,5.93
2023-02-05T20:59:47.070Z,5.76
2023-02-05T21:04:52.420Z,5.82
2023-02-05T21:09:54.928Z,5.64
2023-02-05T21:14:57.381Z,5.63
2023-02-05T21:19:59.508Z,5.74
2023-02-05T21:25:01.714Z,5.85
2023-02-05T21:30:04.753Z,5.68
2023-02-05T21:35:07.680Z,6.05
2023-02-05T21:40:10.683Z,5.71
2023-02-05T21:45:13.094Z,5.64
2023-02-05T21:50:15.956Z,5.68
2023-02-05T21:55:18.211Z,5.68
2023-02-05T22:00:20.518Z,5.87
2023-02-05T22:05:22.680Z,5.59
2023-02-05T22:10:24.797Z,6.03
2023-02-05T22:15:27.052Z,6.27
2023-02-05T22:20:29.328Z,6.05
2023-02-05T22:25:31.544Z,5.68
2023-02-05T22:30:33.993Z,5.65
2023-02-05T22:35:37.681Z,5.99
2023-02-05T22:40:47.627Z,5.93
2023-02-05T22:45:49.786Z,5.79
2023-02-05T22:50:52.040Z,5.73
2023-02-05T22:55:54.276Z,5.95
2023-02-05T23:00:56.577Z,5.81
2023-02-05T23:05:58.849Z,6.12
2023-02-05T23:11:10.810Z,5.82
2023-02-05T23:16:18.496Z,6.00
2023-02-05T23:21:24.564Z,6.02
2023-02-05T23:26:32.175Z,5.89
2023-02-05T23:31:34.821Z,5.69
2023-02-05T23:36:37.227Z,6.24
2023-02-05T23:41:40.123Z,5.90
2023-02-05T23:46:44.313Z,6.02
2023-02-05T23:51:46.550Z,5.55
2023-02-05T23:56:49.801Z,5.39
